Time;durP1;ratioP1;P1;durP2;ratioP2;P2;SDS_P1;SDS_P2;PMS_P1;PMS_P2;Temp;Humidity;BMP_temperature;BMP_pressure;BME280_temperature;BME280_humidity;BME280_pressure;Samples;Min_cycle;Max_cycle;Signal;HPM_P1;HPM_P2
2023/03/13 00:02:09;;;;;;;19.70;4.88;;;;;;;12.16;100.00;98418.63;6158578;23;20009;-95
2023/03/13 00:04:34;;;;;;;27.58;4.32;;;;;;;12.08;100.00;98405.66;6158664;23;20093;-96
2023/03/13 00:06:59;;;;;;;28.23;4.60;;;;;;;12.06;100.00;98402.38;6158721;23;20436;-94
2023/03/13 00:09:26;;;;;;;38.30;7.10;;;;;;;12.21;100.00;98413.81;6158927;23;20005;-96
2023/03/13 00:11:51;;;;;;;27.15;5.88;;;;;;;12.23;100.00;98405.94;6158732;23;20025;-94
2023/03/13 00:14:17;;;;;;;31.30;6.53;;;;;;;12.09;100.00;98383.97;6158241;23;20005;-95
2023/03/13 00:16:42;;;;;;;40.20;7.50;;;;;;;12.06;100.00;98387.69;6158033;23;20037;-95
2023/03/13 00:19:08;;;;;;;37.42;8.25;;;;;;;12.20;100.00;98399.28;6158727;23;20001;-95
2023/03/13 00:21:36;;;;;;;46.97;8.93;;;;;;;12.08;100.00;98410.81;6158810;23;20332;-95
2023/03/13 00:24:02;;;;;;;39.88;7.28;;;;;;;12.02;100.00;98395.88;6158929;23;19997;-93
2023/03/13 00:26:28;;;;;;;37.50;7.00;;;;;;;12.12;100.00;98381.09;6158301;23;20437;-94
2023/03/13 00:28:53;;;;;;;31.67;6.88;;;;;;;12.13;100.00;98399.06;6158731;23;20001;-93
2023/03/13 00:31:20;;;;;;;42.33;6.75;;;;;;;12.12;100.00;98381.94;6158207;23;20015;-95
2023/03/13 00:33:48;;;;;;;42.75;7.15;;;;;;;12.16;100.00;98362.53;6158996;23;20009;-94
2023/03/13 00:36:16;;;;;;;34.13;7.05;;;;;;;11.99;100.00;98356.41;6158622;23;20009;-94
2023/03/13 00:38:42;;;;;;;23.88;5.07;;;;;;;12.12;100.00;98357.81;6158472;23;20009;-94
2023/03/13 00:41:11;;;;;;;27.80;5.65;;;;;;;11.81;100.00;98355.59;6158928;23;20013;-93
2023/03/13 00:43:37;;;;;;;24.70;3.67;;;;;;;11.89;100.00;98340.19;6158607;23;20020;-94
2023/03/13 00:46:03;;;;;;;19.85;4.57;;;;;;;11.96;100.00;98361.91;6184637;23;20009;-94
2023/03/13 00:48:29;;;;;;;13.60;3.00;;;;;;;14.05;99.98;98335.72;6158308;23;20017;-94
2023/03/13 00:50:55;;;;;;;11.98;3.40;;;;;;;12.50;100.00;98328.19;6158299;23;20016;-94
2023/03/13 00:53:20;;;;;;;14.52;3.67;;;;;;;12.11;100.00;98320.00;6158770;23;20033;-94
2023/03/13 00:55:56;;;;;;;14.30;2.78;;;;;;;12.37;100.00;98317.44;6158575;23;20032;-94
2023/03/13 00:58:23;;;;;;;11.48;2.50;;;;;;;12.06;100.00;98288.63;6158374;23;20020;-94
2023/03/13 01:00:48;;;;;;;11.70;2.17;;;;;;;12.05;100.00;98310.28;6158127;23;20009;-94
2023/03/13 01:03:15;;;;;;;11.30;2.38;;;;;;;12.42;100.00;98331.56;6159207;23;20028;-94
2023/03/13 01:05:40;;;;;;;10.48;2.67;;;;;;;12.12;100.00;98300.94;6160118;23;20024;-93
2023/03/13 01:08:06;;;;;;;11.63;2.15;;;;;;;12.13;100.00;98295.63;6159952;23;20017;-94
2023/03/13 01:10:31;;;;;;;10.75;2.50;;;;;;;11.86;100.00;98318.97;6160244;23;20395;-94
2023/03/13 01:12:57;;;;;;;13.48;4.03;;;;;;;11.96;100.00;98315.38;6160525;23;20032;-94
2023/03/13 01:15:23;;;;;;;15.38;2.85;;;;;;;11.89;100.00;98314.34;6160246;23;20371;-93
2023/03/13 01:17:48;;;;;;;20.00;3.25;;;;;;;11.82;100.00;98286.63;6160602;23;20429;-94
2023/03/13 01:20:14;;;;;;;16.55;3.70;;;;;;;11.81;100.00;98311.66;6160219;23;20005;-94
2023/03/13 01:22:39;;;;;;;22.83;3.80;;;;;;;11.86;100.00;98329.31;6160654;23;20013;-94
2023/03/13 01:25:05;;;;;;;23.67;3.92;;;;;;;11.77;100.00;98331.00;6185263;23;20029;-93
2023/03/13 01:27:31;;;;;;;12.65;2.80;;;;;;;11.57;100.00;98279.47;6160694;23;20013;-95
2023/03/13 01:29:56;;;;;;;12.70;3.03;;;;;;;11.75;100.00;98299.31;6160535;23;20451;-93
2023/03/13 01:32:21;;;;;;;14.45;2.80;;;;;;;11.56;100.00;98308.84;6159500;23;20059;-95
2023/03/13 01:34:47;;;;;;;12.70;2.45;;;;;;;11.76;100.00;98325.03;6160640;23;20024;-94
2023/03/13 01:37:12;;;;;;;16.42;3.22;;;;;;;11.62;100.00;98285.97;6160563;23;20092;-94
2023/03/13 01:39:38;;;;;;;8.88;1.95;;;;;;;11.54;100.00;98292.69;6160060;23;20487;-94
2023/03/13 01:42:04;;;;;;;8.98;2.70;;;;;;;11.67;100.00;98289.72;6160687;23;20005;-94
2023/03/13 01:44:49;;;;;;;8.68;2.08;;;;;;;11.67;100.00;98284.56;6160209;23;20001;-95
2023/03/13 01:47:14;;;;;;;6.88;1.92;;;;;;;11.90;100.00;98300.47;6160247;23;20017;-94
2023/03/13 01:49:41;;;;;;;9.15;2.20;;;;;;;11.70;100.00;98278.28;6160402;23;20005;-95
2023/03/13 01:52:11;;;;;;;11.07;2.35;;;;;;;11.72;100.00;98253.09;6159959;23;20425;-94
2023/03/13 01:54:48;;;;;;;10.95;2.08;;;;;;;11.86;100.00;98278.41;6159826;23;20017;-94
2023/03/13 01:57:23;;;;;;;12.68;3.92;;;;;;;11.76;100.00;98251.84;6159889;23;20331;-94
2023/03/13 02:00:07;;;;;;;10.05;1.85;;;;;;;12.07;100.00;98279.88;6159904;23;20011;-95
2023/03/13 02:02:34;;;;;;;7.55;2.10;;;;;;;11.69;100.00;98256.78;6160091;23;20001;-95
2023/03/13 02:05:04;;;;;;;12.48;2.22;;;;;;;11.68;100.00;98249.19;6159888;23;20028;-95
2023/03/13 02:07:38;;;;;;;9.43;2.35;;;;;;;12.00;100.00;98261.59;6159589;23;20009;-95
2023/03/13 02:10:05;;;;;;;17.85;3.80;;;;;;;11.85;100.00;98250.13;6159977;23;20001;-96
2023/03/13 02:12:33;;;;;;;12.07;2.47;;;;;;;11.79;100.00;98236.03;6160017;23;20009;-94
2023/03/13 02:15:03;;;;;;;16.38;3.55;;;;;;;11.78;100.00;98237.81;6160129;23;20084;-94
2023/03/13 02:17:29;;;;;;;9.57;2.50;;;;;;;11.92;100.00;98259.75;6159985;23;20004;-95
2023/03/13 02:19:55;;;;;;;24.98;3.25;;;;;;;11.74;100.00;98218.38;6159988;23;20001;-94
2023/03/13 02:22:32;;;;;;;13.70;2.72;;;;;;;11.93;100.00;98252.81;6159991;23;20084;-94
2023/03/13 02:25:23;;;;;;;5.95;1.88;;;;;;;11.85;100.00;98237.19;6159072;23;20514;-95
2023/03/13 02:28:14;;;;;;;13.32;2.38;;;;;;;11.93;100.00;98232.94;6156039;23;20012;-95
2023/03/13 02:30:41;;;;;;;11.00;2.10;;;;;;;12.06;100.00;98237.72;6159690;23;20009;-95
2023/03/13 02:33:07;;;;;;;11.48;2.33;;;;;;;11.97;100.00;98208.44;6159639;23;19993;-94
2023/03/13 02:35:34;;;;;;;7.30;2.00;;;;;;;11.98;100.00;98227.31;6159738;23;20071;-94
2023/03/13 02:38:04;;;;;;;10.57;2.25;;;;;;;11.67;100.00;98206.22;6159425;23;20012;-94
2023/03/13 02:40:34;;;;;;;8.07;1.80;;;;;;;11.66;100.00;98215.75;6159478;23;20199;-93
2023/03/13 02:43:03;;;;;;;8.85;1.83;;;;;;;11.73;100.00;98219.38;6159204;23;19997;-94
2023/03/13 02:45:29;;;;;;;10.50;2.08;;;;;;;11.81;100.00;98222.97;6159488;23;20008;-95
2023/03/13 02:47:54;;;;;;;7.63;2.05;;;;;;;11.68;100.00;98206.09;6159324;23;20009;-93
2023/03/13 02:50:20;;;;;;;10.35;2.20;;;;;;;11.87;100.00;98222.38;6159441;23;20001;-94
2023/03/13 02:52:49;;;;;;;12.70;1.80;;;;;;;11.72;100.00;98193.66;6159122;23;20067;-93
2023/03/13 02:55:21;;;;;;;13.23;2.03;;;;;;;11.71;100.00;98207.56;6158734;23;20005;-94
2023/03/13 02:57:47;;;;;;;13.75;2.35;;;;;;;11.49;100.00;98178.66;6158201;23;20432;-94
2023/03/13 03:00:15;;;;;;;6.10;1.60;;;;;;;11.53;100.00;98177.41;6158494;23;20031;-94
2023/03/13 03:02:41;;;;;;;7.10;1.83;;;;;;;11.60;100.00;98195.66;6159637;23;20154;-93
2023/03/13 03:05:07;;;;;;;10.43;1.83;;;;;;;11.51;100.00;98150.91;6159198;23;20371;-93
2023/03/13 03:07:33;;;;;;;9.52;1.92;;;;;;;11.57;100.00;98163.19;6158799;23;20016;-93
2023/03/13 03:09:58;;;;;;;9.50;1.90;;;;;;;11.60;100.00;98156.91;6159070;23;20436;-93
2023/03/13 03:12:23;;;;;;;8.30;2.03;;;;;;;11.61;100.00;98160.31;6159365;23;20029;-94
2023/03/13 03:14:49;;;;;;;15.23;2.33;;;;;;;11.53;100.00;98143.81;6158861;23;20071;-94
2023/03/13 03:17:14;;;;;;;10.75;3.05;;;;;;;11.60;100.00;98148.34;6159367;23;20005;-95
2023/03/13 03:19:40;;;;;;;8.48;1.67;;;;;;;11.65;100.00;98121.09;6159068;23;20435;-94
2023/03/13 03:22:05;;;;;;;9.23;2.33;;;;;;;11.60;100.00;98127.69;6158839;23;20016;-93
2023/03/13 03:24:31;;;;;;;8.13;1.20;;;;;;;11.61;100.00;98118.97;6158532;23;20001;-95
2023/03/13 03:26:56;;;;;;;10.38;1.73;;;;;;;11.60;100.00;98096.69;6158599;23;20029;-94
2023/03/13 03:29:21;;;;;;;8.48;1.90;;;;;;;11.62;100.00;98094.75;6158752;23;20009;-94
2023/03/13 03:31:47;;;;;;;7.85;1.58;;;;;;;11.79;100.00;98123.13;6159543;23;20416;-93
2023/03/13 03:34:12;;;;;;;12.40;2.13;;;;;;;11.60;100.00;98096.69;6158409;23;20001;-94
2023/03/13 03:36:38;;;;;;;9.35;1.75;;;;;;;11.49;100.00;98067.56;6158741;23;20005;-94
2023/03/13 03:39:04;;;;;;;9.52;1.98;;;;;;;11.52;100.00;98098.25;6158885;23;20001;-94
2023/03/13 03:41:30;;;;;;;12.38;2.00;;;;;;;11.70;100.00;98081.88;6158956;23;20008;-94
2023/03/13 03:43:55;;;;;;;15.45;2.47;;;;;;;11.56;100.00;98071.16;6159200;23;20436;-93
2023/03/13 03:46:21;;;;;;;16.30;2.22;;;;;;;11.53;100.00;98063.72;6159172;23;20084;-94
2023/03/13 03:48:46;;;;;;;18.90;2.30;;;;;;;11.52;100.00;98061.28;6159067;23;20044;-93
2023/03/13 03:51:12;;;;;;;13.95;2.28;;;;;;;11.74;100.00;98093.53;6158928;23;20016;-93
2023/03/13 03:53:38;;;;;;;15.55;2.30;;;;;;;11.60;100.00;98070.84;6158930;23;20012;-94
2023/03/13 03:56:04;;;;;;;18.35;2.50;;;;;;;11.56;100.00;98060.84;6158743;23;20012;-93
2023/03/13 03:58:29;;;;;;;18.98;2.67;;;;;;;11.48;100.00;98076.25;6159024;23;20009;-94
2023/03/13 04:00:58;;;;;;;17.95;3.05;;;;;;;11.45;100.00;98068.81;6158602;23;20471;-94
2023/03/13 04:03:24;;;;;;;17.42;3.10;;;;;;;11.32;100.00;98073.59;6158520;23;20001;-93
2023/03/13 04:05:49;;;;;;;21.05;3.45;;;;;;;11.39;100.00;98069.44;6158710;23;20059;-94
2023/03/13 04:08:15;;;;;;;19.48;3.13;;;;;;;11.21;100.00;98084.16;6158078;23;20013;-95
2023/03/13 04:10:41;;;;;;;24.77;4.57;;;;;;;11.07;100.00;98068.25;6159045;23;20096;-95
2023/03/13 04:13:06;;;;;;;23.38;3.67;;;;;;;11.22;100.00;98093.53;6158323;23;20005;-95
2023/03/13 04:15:32;;;;;;;20.27;3.80;;;;;;;11.17;100.00;98078.50;6184792;23;20020;-95
2023/03/13 04:17:57;;;;;;;17.95;2.72;;;;;;;11.11;100.00;98066.97;6158822;23;20084;-95
2023/03/13 04:20:23;;;;;;;22.25;4.63;;;;;;;11.10;100.00;98059.41;6158975;23;20049;-94
2023/03/13 04:22:48;;;;;;;22.83;4.97;;;;;;;11.17;100.00;98075.06;6158902;23;20428;-95
2023/03/13 04:25:13;;;;;;;16.85;3.45;;;;;;;11.37;100.00;98070.56;6159086;23;20024;-96
2023/03/13 04:27:39;;;;;;;21.08;3.50;;;;;;;11.38;100.00;98061.84;6158656;23;20427;-95
2023/03/13 04:30:05;;;;;;;23.17;3.92;;;;;;;11.21;100.00;98040.25;6158559;23;20001;-92
2023/03/13 04:32:31;;;;;;;17.15;3.35;;;;;;;11.20;100.00;98038.66;6158775;23;20012;-94
2023/03/13 04:34:56;;;;;;;18.27;2.80;;;;;;;11.31;100.00;98071.94;6158559;23;20371;-95
2023/03/13 04:37:22;;;;;;;30.63;4.30;;;;;;;11.25;100.00;98037.22;6157811;23;20076;-94
2023/03/13 04:39:47;;;;;;;21.75;3.83;;;;;;;11.22;100.00;98036.72;6160806;23;20040;-94
2023/03/13 04:42:13;;;;;;;16.10;2.88;;;;;;;11.40;100.00;98034.91;6160554;23;20001;-94
2023/03/13 04:44:38;;;;;;;23.50;2.92;;;;;;;11.50;100.00;98034.78;6161011;23;20005;-94
2023/03/13 04:47:05;;;;;;;18.40;3.08;;;;;;;11.64;100.00;98054.91;6160857;23;20001;-95
2023/03/13 04:49:30;;;;;;;17.42;2.97;;;;;;;11.39;100.00;98033.28;6161022;23;20012;-95
2023/03/13 04:51:56;;;;;;;23.30;4.32;;;;;;;11.52;100.00;98054.34;6160657;23;20001;-95
2023/03/13 04:54:21;;;;;;;26.50;3.92;;;;;;;11.52;100.00;98051.75;6160166;23;20012;-94
2023/03/13 04:56:47;;;;;;;21.08;3.20;;;;;;;11.64;100.00;98051.50;6160159;23;20432;-94
2023/03/13 04:59:14;;;;;;;16.17;3.50;;;;;;;11.38;100.00;98041.97;6161065;23;20023;-95
2023/03/13 05:01:40;;;;;;;21.73;3.75;;;;;;;11.44;100.00;98036.22;6160270;23;20012;-94
2023/03/13 05:04:06;;;;;;;21.52;3.85;;;;;;;11.44;100.00;98031.06;6160669;23;20087;-95
2023/03/13 05:06:31;;;;;;;24.27;3.28;;;;;;;11.44;100.00;98053.50;6158283;23;20083;-95
2023/03/13 05:08:56;;;;;;;30.88;4.95;;;;;;;11.42;100.00;98038.13;6185951;23;20105;-96
2023/03/13 05:11:22;;;;;;;26.30;4.30;;;;;;;11.41;99.83;98036.53;6160067;23;20012;-95
2023/03/13 05:13:47;;;;;;;27.52;5.00;;;;;;;11.46;99.28;98036.06;6160224;23;20011;-93
2023/03/13 05:16:13;;;;;;;23.30;3.65;;;;;;;11.39;100.00;98030.72;6160640;23;20424;-94
2023/03/13 05:18:38;;;;;;;22.67;4.10;;;;;;;11.52;98.54;98031.09;6160236;23;20005;-93
2023/03/13 05:21:05;;;;;;;38.58;4.63;;;;;;;11.42;99.15;98027.00;6160417;23;20005;-95
2023/03/13 05:23:30;;;;;;;31.05;5.32;;;;;;;11.48;98.69;98027.19;6160672;23;20344;-95
2023/03/13 05:25:56;;;;;;;28.70;5.03;;;;;;;11.59;97.44;98033.06;6160183;23;20026;-95
2023/03/13 05:28:21;;;;;;;38.25;5.32;;;;;;;11.47;99.20;98011.84;6160113;23;20012;-94
2023/03/13 05:30:47;;;;;;;29.48;5.75;;;;;;;11.28;99.87;98005.13;6160152;23;20036;-95
2023/03/13 05:33:12;;;;;;;30.50;5.00;;;;;;;11.17;98.80;97982.13;6160331;23;20008;-94
2023/03/13 05:35:38;;;;;;;38.40;5.15;;;;;;;11.42;95.91;98007.16;6186228;23;20047;-95
2023/03/13 05:38:03;;;;;;;37.03;5.95;;;;;;;11.32;97.28;98002.09;6159698;23;20083;-96
2023/03/13 05:40:29;;;;;;;33.08;5.47;;;;;;;11.36;95.81;97997.41;6160203;23;20009;-95
2023/03/13 05:42:54;;;;;;;41.25;8.23;;;;;;;11.50;96.13;98012.34;6160513;23;20458;-94
2023/03/13 05:45:19;;;;;;;33.53;5.53;;;;;;;11.55;93.92;98011.88;6159932;23;20324;-95
2023/03/13 05:47:45;;;;;;;34.83;5.63;;;;;;;11.42;94.19;97996.00;6160119;23;20432;-94
2023/03/13 05:50:10;;;;;;;42.15;5.93;;;;;;;11.28;93.54;97974.13;6159876;23;20427;-94
2023/03/13 05:52:36;;;;;;;39.88;7.93;;;;;;;11.38;92.14;98000.66;6160365;23;20092;-95
2023/03/13 05:55:01;;;;;;;35.53;5.20;;;;;;;11.35;91.06;97988.88;6160236;23;20009;-95
2023/03/13 05:57:27;;;;;;;39.45;6.25;;;;;;;11.14;92.57;97968.59;6160612;23;20432;-95
2023/03/13 05:59:53;;;;;;;35.20;6.63;;;;;;;11.12;90.75;97974.88;6160059;23;20005;-94
2023/03/13 06:02:19;;;;;;;45.90;6.38;;;;;;;11.11;91.31;97940.47;6160152;23;20028;-94
2023/03/13 06:04:45;;;;;;;40.90;7.72;;;;;;;11.23;90.34;97948.78;6160219;23;20432;-93
2023/03/13 06:07:11;;;;;;;36.95;6.30;;;;;;;11.33;90.02;97956.41;6159116;23;20020;-94
2023/03/13 06:09:36;;;;;;;38.17;6.35;;;;;;;11.28;90.42;97943.16;6160299;23;20005;-95
2023/03/13 06:12:02;;;;;;;36.17;5.40;;;;;;;11.27;90.63;97969.94;6160010;23;20206;-95
2023/03/13 06:14:27;;;;;;;37.33;5.80;;;;;;;11.27;93.80;97975.13;6160350;23;20005;-94
2023/03/13 06:16:53;;;;;;;44.42;7.20;;;;;;;11.07;100.00;97977.91;6159869;23;20088;-94
2023/03/13 06:19:19;;;;;;;41.50;8.18;;;;;;;10.78;100.00;97936.91;6159391;23;20029;-94
2023/03/13 06:21:45;;;;;;;51.30;8.70;;;;;;;10.75;100.00;97941.53;6159346;23;20005;-92
2023/03/13 06:24:10;;;;;;;40.70;8.40;;;;;;;10.50;100.00;97949.91;6159669;23;20055;-94
2023/03/13 06:26:36;;;;;;;42.60;7.55;;;;;;;10.58;100.00;97969.78;6159779;23;20016;-94
2023/03/13 06:29:01;;;;;;;47.83;7.07;;;;;;;10.52;100.00;97936.84;6185703;23;20436;-95
2023/03/13 06:31:26;;;;;;;52.58;8.85;;;;;;;10.48;100.00;97914.91;6159333;23;20089;-94
2023/03/13 06:33:53;;;;;;;47.95;7.60;;;;;;;10.67;100.00;97966.31;6185868;23;20031;-93
2023/03/13 06:36:19;;;;;;;34.97;6.75;;;;;;;10.60;100.00;97934.34;6159244;23;20047;-93
2023/03/13 06:38:45;;;;;;;34.25;6.55;;;;;;;10.59;100.00;97937.09;6159986;23;20016;-94
2023/03/13 06:41:10;;;;;;;36.95;5.68;;;;;;;10.66;100.00;97932.94;6160146;23;20001;-93
2023/03/13 06:43:39;;;;;;;37.17;6.10;;;;;;;10.61;100.00;97930.81;6160312;23;20005;-94
2023/03/13 06:46:05;;;;;;;34.25;5.97;;;;;;;10.46;100.00;97929.69;6161331;23;20005;-96
2023/03/13 06:48:30;;;;;;;24.23;5.30;;;;;;;10.53;100.00;97938.47;6159398;23;20083;-94
2023/03/13 06:50:56;;;;;;;35.15;5.90;;;;;;;10.45;100.00;97910.03;6160279;23;20009;-94
2023/03/13 06:53:21;;;;;;;44.63;8.90;;;;;;;10.59;100.00;97919.81;6159493;23;20001;-93
2023/03/13 06:55:47;;;;;;;54.65;10.15;;;;;;;10.66;100.00;97928.59;6159177;23;20356;-94
2023/03/13 06:58:13;;;;;;;43.10;7.07;;;;;;;10.85;100.00;97937.09;6159114;23;20013;-95
2023/03/13 07:00:39;;;;;;;44.75;7.82;;;;;;;10.80;100.00;97905.78;6160252;23;20328;-94
2023/03/13 07:03:05;;;;;;;59.72;9.82;;;;;;;11.01;100.00;97890.75;6161272;23;20005;-95
2023/03/13 07:05:31;;;;;;;48.05;9.48;;;;;;;10.91;100.00;97882.31;6160991;23;20009;-94
2023/03/13 07:07:56;;;;;;;47.45;6.75;;;;;;;11.31;99.82;97910.09;6160015;23;20317;-96
2023/03/13 07:10:22;;;;;;;56.95;8.38;;;;;;;11.08;99.85;97896.09;6160509;23;20076;-94
2023/03/13 07:12:47;;;;;;;53.63;8.52;;;;;;;11.05;99.75;97896.41;6160355;23;20103;-95
2023/03/13 07:15:13;;;;;;;45.60;7.82;;;;;;;11.10;99.82;97900.16;6184194;23;20347;-95
2023/03/13 07:17:38;;;;;;;58.38;7.65;;;;;;;10.91;99.81;97880.53;6160639;23;20438;-94
2023/03/13 07:20:05;;;;;;;49.63;7.47;;;;;;;11.03;99.62;97875.91;6159956;23;20012;-95
2023/03/13 07:22:31;;;;;;;57.10;7.97;;;;;;;11.16;97.64;97892.75;6159931;23;19997;-94
2023/03/13 07:24:56;;;;;;;53.30;9.90;;;;;;;10.97;97.90;97862.81;6160136;23;20009;-95
2023/03/13 07:27:22;;;;;;;43.50;7.70;;;;;;;10.99;97.10;97861.69;6159929;23;20009;-95
2023/03/13 07:29:48;;;;;;;41.28;5.50;;;;;;;11.36;95.83;97899.28;6159459;23;20012;-94
2023/03/13 07:32:14;;;;;;;50.63;8.57;;;;;;;11.39;94.68;97873.16;6159245;23;20020;-95
2023/03/13 07:34:39;;;;;;;40.42;5.90;;;;;;;11.49;92.47;97904.84;6158882;23;20315;-95
2023/03/13 07:37:05;;;;;;;40.67;6.40;;;;;;;11.34;95.67;97878.78;6159597;23;20340;-96
2023/03/13 07:39:30;;;;;;;38.80;5.78;;;;;;;11.41;94.15;97902.22;6159305;23;20005;-94
2023/03/13 07:41:56;;;;;;;41.75;7.43;;;;;;;11.66;93.09;97899.72;6159356;23;20063;-94
2023/03/13 07:44:21;;;;;;;59.03;8.15;;;;;;;11.67;91.95;97883.25;6157737;23;19993;-94
2023/03/13 07:46:48;;;;;;;52.63;6.78;;;;;;;11.71;92.90;97900.88;6159369;23;20008;-94
2023/03/13 07:49:14;;;;;;;50.53;8.32;;;;;;;11.56;91.81;97877.41;6159231;23;20005;-95
2023/03/13 07:51:40;;;;;;;58.88;8.63;;;;;;;11.96;91.04;97901.75;6159533;23;20063;-94
2023/03/13 07:54:05;;;;;;;47.05;8.10;;;;;;;11.71;92.13;97877.59;6159246;23;20372;-95
2023/03/13 07:56:31;;;;;;;47.03;7.72;;;;;;;11.72;90.67;97894.72;6159868;23;20004;-94
2023/03/13 07:58:56;;;;;;;43.25;6.07;;;;;;;11.92;87.97;97878.97;6159464;23;20005;-94
2023/03/13 08:01:24;;;;;;;47.30;9.60;;;;;;;11.63;90.44;97884.50;6159856;23;20007;-95
2023/03/13 08:03:50;;;;;;;38.25;6.43;;;;;;;11.81;89.56;97889.59;6157161;23;20001;-95
2023/03/13 08:06:25;;;;;;;39.65;5.40;;;;;;;11.53;92.46;97879.47;6158568;23;20005;-94
2023/03/13 08:08:52;;;;;;;53.42;8.63;;;;;;;11.53;93.20;97884.66;6158828;23;20012;-95
2023/03/13 08:11:20;;;;;;;53.67;6.40;;;;;;;11.39;92.40;97886.06;6160105;23;20028;-95
2023/03/13 08:13:46;;;;;;;42.58;6.53;;;;;;;11.20;95.60;97899.22;6158987;23;20001;-94
2023/03/13 08:16:26;;;;;;;41.58;7.15;;;;;;;11.22;99.53;97872.28;6159278;23;20023;-93
2023/03/13 08:18:54;;;;;;;47.97;6.53;;;;;;;11.39;99.54;97896.41;6158605;23;20005;-94
2023/03/13 08:21:25;;;;;;;49.20;8.98;;;;;;;11.53;97.06;97911.31;6159137;23;20063;-96
2023/03/13 08:23:58;;;;;;;51.45;9.10;;;;;;;11.52;96.82;97901.13;6159795;23;20013;-94
2023/03/13 08:26:27;;;;;;;55.05;9.95;;;;;;;11.33;97.07;97900.41;6159848;23;20092;-93
2023/03/13 08:28:58;;;;;;;51.70;7.78;;;;;;;10.93;100.00;97893.28;6159060;23;20013;-94
2023/03/13 08:31:34;;;;;;;52.60;8.82;;;;;;;11.12;100.00;97893.06;6159889;23;20084;-96
2023/03/13 08:34:00;;;;;;;70.47;8.80;;;;;;;11.47;100.00;97900.78;6157969;23;20013;-96
2023/03/13 08:36:31;;;;;;;56.47;10.85;;;;;;;11.71;100.00;97915.56;6158285;23;20494;-96
2023/03/13 08:38:59;;;;;;;66.50;10.70;;;;;;;11.71;95.79;97918.16;6158649;23;20428;-95
2023/03/13 08:41:27;;;;;;;59.58;8.93;;;;;;;11.59;94.20;97896.16;6161033;23;20005;-95
2023/03/13 08:43:54;;;;;;;63.95;10.25;;;;;;;11.51;94.19;97902.06;6159087;23;20009;-95
2023/03/13 08:46:20;;;;;;;61.03;8.00;;;;;;;11.51;92.39;97918.41;6159421;23;20012;-94
2023/03/13 08:48:50;;;;;;;50.42;8.05;;;;;;;11.83;93.67;97932.41;6158439;23;20100;-95
2023/03/13 08:51:16;;;;;;;56.28;8.13;;;;;;;11.83;91.74;97905.75;6159128;23;20055;-94
2023/03/13 08:53:43;;;;;;;53.08;7.72;;;;;;;11.90;90.06;97917.06;6158756;23;20005;-95
2023/03/13 08:56:10;;;;;;;46.85;10.05;;;;;;;12.12;89.06;97892.38;6159771;23;20005;-95
2023/03/13 08:58:36;;;;;;;50.80;9.43;;;;;;;12.02;90.03;97920.16;6158640;23;19997;-95
2023/03/13 09:01:10;;;;;;;40.60;7.10;;;;;;;11.66;90.35;97908.28;6158635;23;20413;-94
2023/03/13 09:03:36;;;;;;;42.95;7.40;;;;;;;11.61;91.40;97891.63;6158391;23;19997;-96
2023/03/13 09:06:02;;;;;;;55.38;11.57;;;;;;;11.88;91.93;97913.88;6158755;23;19997;-95
2023/03/13 09:08:29;;;;;;;55.92;9.55;;;;;;;11.51;90.77;97871.91;6159803;23;20095;-95
2023/03/13 09:10:56;;;;;;;42.75;8.15;;;;;;;11.80;88.99;97914.59;6159334;23;20005;-95
2023/03/13 09:13:22;;;;;;;55.25;9.00;;;;;;;11.65;89.91;97906.66;6158572;23;20005;-95
2023/03/13 09:15:59;;;;;;;53.92;8.48;;;;;;;11.50;89.59;97888.34;6158342;23;20093;-95
2023/03/13 09:18:24;;;;;;;46.20;9.05;;;;;;;11.47;87.90;97900.78;6158676;23;20062;-95
2023/03/13 09:20:54;;;;;;;51.90;8.73;;;;;;;11.66;88.68;97899.72;6161690;23;20088;-95
2023/03/13 09:23:20;;;;;;;50.92;8.75;;;;;;;11.81;84.01;97931.75;6163638;23;20009;-95
2023/03/13 09:25:46;;;;;;;51.45;7.32;;;;;;;12.08;82.53;97911.78;6162064;23;20009;-96
2023/03/13 09:28:11;;;;;;;49.65;7.90;;;;;;;12.24;83.48;97904.06;6163468;23;20015;-94
2023/03/13 09:30:37;;;;;;;53.53;8.23;;;;;;;12.32;79.49;97913.59;6161388;23;20012;-95
2023/03/13 09:33:02;;;;;;;47.20;8.73;;;;;;;12.37;80.78;97939.78;6160556;23;20005;-94
2023/03/13 09:35:28;;;;;;;42.30;6.30;;;;;;;12.25;81.46;97916.00;6160177;23;20020;-93
2023/03/13 09:37:56;;;;;;;49.78;8.20;;;;;;;12.34;80.82;97950.47;6160258;23;20040;-94
2023/03/13 09:40:27;;;;;;;52.45;10.50;;;;;;;12.23;79.13;97938.63;6161372;23;20001;-95
2023/03/13 09:42:57;;;;;;;54.22;8.90;;;;;;;12.13;81.88;97917.28;6161503;23;20069;-93
2023/03/13 09:45:37;;;;;;;52.55;9.93;;;;;;;12.30;79.64;97923.28;6161099;23;20467;-95
2023/03/13 09:48:27;;;;;;;48.67;6.90;;;;;;;12.11;79.38;97925.19;6161686;23;20005;-96
2023/03/13 09:51:10;;;;;;;51.60;7.57;;;;;;;12.38;80.04;97942.19;6161082;23;20013;-96
2023/03/13 09:53:48;;;;;;;41.03;6.43;;;;;;;12.87;77.18;97949.13;6161296;23;20432;-96
2023/03/13 09:56:19;;;;;;;39.72;8.35;;;;;;;12.60;75.59;97914.06;6160865;23;20009;-96
2023/03/13 09:59:04;;;;;;;44.25;7.10;;;;;;;12.64;74.64;97910.19;6160466;23;20001;-96
2023/03/13 10:01:32;;;;;;;43.92;7.32;;;;;;;12.75;74.71;97925.38;6160491;23;20005;-94
2023/03/13 10:04:24;;;;;;;43.60;8.38;;;;;;;12.95;73.67;97938.78;6160117;23;20016;-95
2023/03/13 10:06:50;;;;;;;41.28;7.20;;;;;;;12.37;74.44;97925.06;6160094;23;20005;-93
2023/03/13 10:09:28;;;;;;;47.40;7.65;;;;;;;12.64;76.00;97923.13;6160584;23;20047;-93
2023/03/13 10:12:04;;;;;;;49.75;9.13;;;;;;;12.74;74.62;97926.34;6159952;23;20031;-93
2023/03/13 10:14:35;;;;;;;41.17;7.43;;;;;;;12.55;74.85;97935.25;6160675;23;20417;-95
2023/03/13 10:17:19;;;;;;;30.98;6.88;;;;;;;13.03;74.73;97956.06;6159207;23;20013;-94
2023/03/13 10:19:53;;;;;;;49.80;11.80;;;;;;;12.99;75.24;97958.16;6160332;23;20009;-96
2023/03/13 10:22:24;;;;;;;42.10;7.68;;;;;;;13.20;73.89;97947.28;6160504;23;20009;-95
2023/03/13 10:24:56;;;;;;;39.40;7.03;;;;;;;13.45;76.26;97957.63;6160332;23;20005;-95
2023/03/13 10:27:21;;;;;;;56.53;8.15;;;;;;;13.15;75.00;97930.66;6160367;23;20012;-95
2023/03/13 10:29:46;;;;;;;41.85;7.05;;;;;;;13.49;74.45;97945.94;6160444;23;20005;-96
2023/03/13 10:32:15;;;;;;;45.72;7.45;;;;;;;13.95;71.77;97934.84;6160174;23;20020;-95
2023/03/13 10:34:51;;;;;;;38.28;6.80;;;;;;;13.70;72.66;97925.44;6159648;23;20004;-96
2023/03/13 10:37:25;;;;;;;41.50;7.00;;;;;;;15.90;64.35;97930.59;6159796;23;20088;-96
2023/03/13 10:39:51;;;;;;;46.33;7.90;;;;;;;18.29;56.65;97989.56;6160619;23;20009;-95
2023/03/13 10:42:26;;;;;;;35.50;7.40;;;;;;;16.46;57.26;97915.16;6160254;23;20009;-96
2023/03/13 10:44:59;;;;;;;52.08;7.93;;;;;;;15.62;60.89;97939.84;6162103;23;20009;-95
2023/03/13 10:47:25;;;;;;;43.85;8.88;;;;;;;14.39;63.23;97922.09;6163836;23;20088;-95
2023/03/13 10:49:55;;;;;;;46.95;6.38;;;;;;;14.42;65.39;97910.56;6167602;23;20001;-94
2023/03/13 10:52:34;;;;;;;42.25;7.55;;;;;;;14.22;63.16;97907.63;6166493;23;20001;-94
2023/03/13 10:55:15;;;;;;;40.33;8.18;;;;;;;13.74;67.09;97938.06;6165543;23;20092;-94
2023/03/13 10:57:50;;;;;;;46.92;8.38;;;;;;;13.57;67.42;97929.56;6171659;23;20001;-96
2023/03/13 11:00:37;;;;;;;38.88;7.88;;;;;;;12.94;74.82;97913.84;6168878;23;20013;-96
2023/03/13 11:03:17;;;;;;;45.80;9.30;;;;;;;13.53;71.84;97921.28;6168579;23;20001;-94
2023/03/13 11:05:52;;;;;;;38.15;7.55;;;;;;;13.51;69.25;97912.91;6170595;23;20001;-94
2023/03/13 11:08:21;;;;;;;37.60;7.32;;;;;;;13.04;70.62;97937.78;6166234;23;20040;-94
2023/03/13 11:11:05;;;;;;;38.03;7.43;;;;;;;13.86;67.96;97915.97;6179545;23;20061;-92
2023/03/13 11:13:41;;;;;;;49.22;7.20;;;;;;;14.21;66.73;97956.09;6182202;23;20009;-95
2023/03/13 11:16:28;;;;;;;46.05;8.23;;;;;;;14.07;66.63;97923.94;6184392;23;20016;-95
2023/03/13 11:19:30;;;;;;;41.53;7.38;;;;;;;14.45;64.73;97947.34;6185947;23;19990;-95
2023/03/13 11:24:53;;;;;;;46.05;8.98;;;;;;;15.18;60.42;97937.28;6217806;23;20001;-95
2023/03/13 11:27:34;;;;;;;50.22;6.78;;;;;;;16.45;56.37;97911.72;6214674;23;20009;-94
2023/03/13 11:30:26;;;;;;;54.15;9.75;;;;;;;15.34;59.49;97907.72;6213595;23;20019;-95